Time;durP1;ratioP1;P1;durP2;ratioP2;P2;SDS_P1;SDS_P2;PMS_P1;PMS_P2;Temp;Humidity;BMP_temperature;BMP_pressure;BME280_temperature;BME280_humidity;BME280_pressure;Samples;Min_cycle;Max_cycle;Signal;HPM_P1;HPM_P2
2021/05/31 00:00:00;;;;;;;1999.90;999.90;;;10.40;99.90;;;;;;5056017;28;20256;-59
2021/05/31 00:02:27;;;;;;;1999.90;999.90;;;10.40;99.90;;;;;;5055986;28;20655;-58
2021/05/31 00:04:53;;;;;;;1999.90;999.90;;;10.40;99.90;;;;;;5055973;28;20504;-59
2021/05/31 00:07:20;;;;;;;1999.90;999.90;;;10.50;99.90;;;;;;5055928;28;20158;-58
2021/05/31 00:09:51;;;;;;;1999.90;999.90;;;10.50;99.90;;;;;;5056075;28;20546;-59
2021/05/31 00:12:19;;;;;;;1999.90;999.90;;;10.50;99.90;;;;;;5056052;28;20189;-59
2021/05/31 00:14:46;;;;;;;1999.90;999.90;;;10.50;99.90;;;;;;5055997;28;20184;-57
2021/05/31 00:17:13;;;;;;;1999.90;999.90;;;10.50;99.90;;;;;;5055789;28;20170;-59
2021/05/31 00:19:41;;;;;;;1999.90;999.90;;;10.50;99.90;;;;;;5055769;28;20170;-59
2021/05/31 00:22:08;;;;;;;1999.90;999.90;;;10.50;99.90;;;;;;5055609;28;20171;-59
2021/05/31 00:24:36;;;;;;;1999.90;999.90;;;10.60;99.90;;;;;;5055675;28;20201;-59
2021/05/31 00:27:03;;;;;;;1999.90;999.90;;;10.60;99.90;;;;;;5055583;28;20169;-59
2021/05/31 00:29:30;;;;;;;1999.90;999.90;;;10.60;99.90;;;;;;5055478;28;20166;-59
2021/05/31 00:31:58;;;;;;;1999.90;999.90;;;10.70;99.90;;;;;;5055335;28;20247;-58
2021/05/31 00:34:26;;;;;;;1999.90;999.90;;;10.70;99.90;;;;;;5055499;28;20252;-59
2021/05/31 00:36:53;;;;;;;1999.90;999.90;;;10.60;99.90;;;;;;5055381;28;20659;-59
2021/05/31 00:39:21;;;;;;;1999.90;999.90;;;10.70;99.90;;;;;;5055485;28;20176;-59
2021/05/31 00:41:50;;;;;;;1999.90;999.90;;;10.60;99.90;;;;;;5055427;28;20158;-58
2021/05/31 00:44:18;;;;;;;1999.90;999.90;;;10.70;99.90;;;;;;5055298;28;20201;-58
2021/05/31 00:46:46;;;;;;;1999.90;999.90;;;10.80;99.90;;;;;;5055469;28;20219;-59
2021/05/31 00:49:20;;;;;;;1999.90;999.90;;;10.70;99.90;;;;;;5055110;28;20181;-59
2021/05/31 00:51:47;;;;;;;1999.90;999.90;;;10.70;99.90;;;;;;5055199;28;20225;-57
2021/05/31 00:54:14;;;;;;;1999.90;999.90;;;10.70;99.90;;;;;;5055067;28;20180;-59
2021/05/31 00:56:44;;;;;;;1999.90;999.90;;;10.70;99.90;;;;;;5055000;28;20166;-59
2021/05/31 00:59:12;;;;;;;1999.90;999.90;;;10.60;99.90;;;;;;5055255;28;20177;-59
2021/05/31 01:01:39;;;;;;;1999.90;999.90;;;10.60;99.90;;;;;;5054801;28;20177;-59
2021/05/31 01:04:06;;;;;;;1999.90;999.90;;;10.50;99.90;;;;;;5054785;28;20212;-53
2021/05/31 01:06:36;;;;;;;1999.90;999.90;;;10.50;99.90;;;;;;5054881;28;20690;-59
2021/05/31 01:09:26;;;;;;;1999.90;999.90;;;10.50;99.90;;;;;;5054989;28;20195;-59
2021/05/31 01:12:13;;;;;;;1999.90;999.90;;;10.50;99.90;;;;;;5054822;28;20569;-56
2021/05/31 01:14:55;;;;;;;1999.90;999.90;;;10.50;99.90;;;;;;5054757;28;20154;-55
2021/05/31 01:17:24;;;;;;;1999.90;999.90;;;10.50;99.90;;;;;;5054888;28;20161;-59
2021/05/31 01:19:53;;;;;;;1999.90;999.90;;;10.60;99.90;;;;;;5054737;28;20176;-59
2021/05/31 01:22:26;;;;;;;1999.90;999.90;;;10.60;99.90;;;;;;5054502;28;20219;-58
2021/05/31 01:25:32;;;;;;;1999.90;999.90;;;10.60;99.90;;;;;;5054956;28;20197;-59
2021/05/31 01:28:02;;;;;;;1999.90;999.90;;;10.60;99.90;;;;;;5054446;28;20177;-58
2021/05/31 01:30:29;;;;;;;1999.90;999.90;;;10.60;99.90;;;;;;5054240;28;20670;-59
2021/05/31 01:32:59;;;;;;;1999.90;999.90;;;10.60;99.90;;;;;;5054299;28;20176;-54
2021/05/31 01:35:33;;;;;;;1999.90;999.90;;;10.60;99.90;;;;;;5054563;28;20169;-57
2021/05/31 01:38:01;;;;;;;1999.90;999.90;;;10.50;99.90;;;;;;5054298;28;20161;-59
2021/05/31 01:40:29;;;;;;;1999.90;999.90;;;10.50;99.90;;;;;;5054189;28;20175;-58
2021/05/31 01:43:04;;;;;;;1999.90;999.90;;;10.40;99.90;;;;;;5054098;28;20250;-56
2021/05/31 01:45:32;;;;;;;1999.90;999.90;;;10.30;99.90;;;;;;5054058;28;20169;-53
2021/05/31 01:47:59;;;;;;;1999.90;999.90;;;10.20;99.90;;;;;;5054060;28;20157;-58
2021/05/31 01:50:29;;;;;;;1999.90;999.90;;;10.20;99.90;;;;;;5054031;28;20180;-54
2021/05/31 01:52:57;;;;;;;1999.90;999.90;;;10.20;99.90;;;;;;5054042;28;20173;-54
2021/05/31 01:55:24;;;;;;;1999.90;999.90;;;10.20;99.90;;;;;;5054067;28;20500;-59
2021/05/31 01:57:52;;;;;;;1999.90;999.90;;;10.10;99.90;;;;;;5053970;28;20689;-57
2021/05/31 02:00:19;;;;;;;1999.90;999.90;;;10.00;99.90;;;;;;5054034;28;20193;-59
2021/05/31 02:02:46;;;;;;;1999.90;999.90;;;9.90;99.90;;;;;;5053178;28;20222;-58
2021/05/31 02:05:15;;;;;;;1999.90;999.90;;;9.90;99.90;;;;;;5053753;28;20642;-59
2021/05/31 02:07:42;;;;;;;1999.90;999.90;;;9.90;99.90;;;;;;5053733;28;20165;-60
2021/05/31 02:10:11;;;;;;;1999.90;999.90;;;9.80;99.90;;;;;;5053550;28;20701;-59
2021/05/31 02:12:58;;;;;;;1999.90;999.90;;;9.90;99.90;;;;;;5053656;28;20256;-60
2021/05/31 02:15:53;;;;;;;1999.90;999.90;;;9.80;99.90;;;;;;5053710;28;20260;-59
2021/05/31 02:18:32;;;;;;;1999.90;999.90;;;9.90;99.90;;;;;;5053571;28;20612;-60
2021/05/31 02:21:09;;;;;;;1999.90;999.90;;;9.80;99.90;;;;;;5053554;28;20256;-59
2021/05/31 02:23:39;;;;;;;1999.90;999.90;;;9.80;99.90;;;;;;5053362;28;20266;-53
2021/05/31 02:26:07;;;;;;;1999.90;999.90;;;9.80;99.90;;;;;;5053323;28;20561;-59
2021/05/31 02:28:34;;;;;;;1999.90;999.90;;;9.80;99.90;;;;;;5053352;28;20168;-57
2021/05/31 02:31:03;;;;;;;1999.90;999.90;;;9.80;99.90;;;;;;5053041;28;20323;-59
2021/05/31 02:33:30;;;;;;;1999.90;999.90;;;9.80;99.90;;;;;;5053185;28;20560;-59
2021/05/31 02:35:57;;;;;;;1999.90;999.90;;;9.90;99.90;;;;;;5053307;28;20165;-57
2021/05/31 02:38:24;;;;;;;1999.90;999.90;;;10.00;99.90;;;;;;5053136;28;20246;-59
2021/05/31 02:40:51;;;;;;;1999.90;999.90;;;10.00;99.90;;;;;;5053113;28;20165;-59
2021/05/31 02:43:18;;;;;;;1999.90;999.90;;;10.10;99.90;;;;;;5053090;28;20203;-59
2021/05/31 02:45:45;;;;;;;1999.90;999.90;;;10.20;99.90;;;;;;5053008;28;20165;-59
2021/05/31 02:48:12;;;;;;;1999.90;999.90;;;10.30;99.90;;;;;;5053060;28;20628;-59
2021/05/31 02:50:38;;;;;;;1999.90;999.90;;;10.30;99.90;;;;;;5052918;28;20170;-59
2021/05/31 02:53:05;;;;;;;1999.90;999.90;;;10.40;99.90;;;;;;5052910;28;20257;-54
2021/05/31 02:55:36;;;;;;;1999.90;999.90;;;10.40;99.90;;;;;;5052984;28;20168;-57
2021/05/31 02:58:03;;;;;;;1999.90;999.90;;;10.50;99.90;;;;;;5052866;28;20644;-57
2021/05/31 03:00:30;;;;;;;1999.90;999.90;;;10.50;99.90;;;;;;5053120;28;20172;-59
2021/05/31 03:02:57;;;;;;;1999.90;999.90;;;10.50;99.90;;;;;;5052931;28;20608;-60
2021/05/31 03:05:28;;;;;;;1999.90;999.90;;;10.50;99.90;;;;;;5052939;28;20592;-55
2021/05/31 03:07:56;;;;;;;1999.90;999.90;;;10.60;99.90;;;;;;5052837;28;20161;-57
2021/05/31 03:10:23;;;;;;;1999.90;999.90;;;10.60;99.90;;;;;;5052844;28;20181;-59
2021/05/31 03:12:50;;;;;;;1999.90;999.90;;;10.60;99.90;;;;;;5052760;28;20173;-60
2021/05/31 03:15:18;;;;;;;1999.90;999.90;;;10.60;99.90;;;;;;5055703;28;20524;-60
2021/05/31 03:17:46;;;;;;;1999.90;999.90;;;10.60;99.90;;;;;;5056892;28;20173;-60
2021/05/31 03:20:14;;;;;;;1999.90;999.90;;;10.60;99.90;;;;;;5056801;28;20172;-59
2021/05/31 03:22:41;;;;;;;1999.90;999.90;;;10.70;99.90;;;;;;5056710;28;20250;-59
2021/05/31 03:25:10;;;;;;;1999.90;999.90;;;10.70;99.90;;;;;;5056770;28;20654;-60
2021/05/31 03:27:37;;;;;;;1999.90;999.90;;;10.70;99.90;;;;;;5056737;28;20169;-59
2021/05/31 03:30:06;;;;;;;1999.90;999.90;;;10.70;99.90;;;;;;5056606;28;20216;-59
2021/05/31 03:32:33;;;;;;;1999.90;999.90;;;10.70;99.90;;;;;;5056944;28;20161;-60
2021/05/31 03:35:00;;;;;;;1999.90;999.90;;;10.70;99.90;;;;;;5056727;28;20172;-59
2021/05/31 03:37:26;;;;;;;1999.90;999.90;;;10.80;99.90;;;;;;5056522;28;20230;-60
2021/05/31 03:39:53;;;;;;;1999.90;999.90;;;10.80;99.90;;;;;;5056498;28;20632;-60
2021/05/31 03:42:20;;;;;;;1999.90;999.90;;;10.80;99.90;;;;;;5056387;28;20165;-60
2021/05/31 03:44:47;;;;;;;1999.90;999.90;;;10.80;99.90;;;;;;5056295;28;20183;-60
2021/05/31 03:47:14;;;;;;;1999.90;999.90;;;10.80;99.90;;;;;;5056323;28;20169;-59
2021/05/31 03:49:41;;;;;;;1999.90;999.90;;;10.90;99.90;;;;;;5056217;28;20219;-59
2021/05/31 03:52:08;;;;;;;1999.90;999.90;;;10.90;99.90;;;;;;5056249;28;20546;-59
2021/05/31 03:54:35;;;;;;;1999.90;999.90;;;10.90;99.90;;;;;;5056288;28;20215;-56
2021/05/31 03:57:01;;;;;;;1999.90;999.90;;;10.90;99.90;;;;;;5056274;28;20173;-60
2021/05/31 03:59:29;;;;;;;1999.90;999.90;;;10.90;99.90;;;;;;5056146;28;20157;-60
2021/05/31 04:01:56;;;;;;;1999.90;999.90;;;10.90;99.90;;;;;;5055980;28;20201;-56
2021/05/31 04:04:23;;;;;;;1999.90;999.90;;;10.90;99.90;;;;;;5056083;28;20189;-60
2021/05/31 04:12:12;;;;;;;1999.90;999.90;;;11.10;99.90;;;;;;5018994;28;20183;-59
2021/05/31 04:14:39;;;;;;;1999.90;999.90;;;11.20;99.90;;;;;;5055802;28;20240;-59
2021/05/31 04:17:06;;;;;;;1999.90;999.90;;;11.20;99.90;;;;;;5055793;28;20231;-58
2021/05/31 04:19:33;;;;;;;1999.90;999.90;;;11.30;99.90;;;;;;5055882;28;20165;-60
2021/05/31 04:22:00;;;;;;;1999.90;999.90;;;11.30;99.90;;;;;;5055753;28;20232;-59
2021/05/31 04:24:26;;;;;;;1999.90;999.90;;;11.30;99.90;;;;;;5055294;28;20205;-59
2021/05/31 04:26:53;;;;;;;1999.90;999.90;;;11.30;99.90;;;;;;5055496;28;20520;-58
2021/05/31 04:29:20;;;;;;;1999.90;999.90;;;11.40;99.90;;;;;;5055474;28;20236;-59
2021/05/31 04:31:47;;;;;;;1999.90;999.90;;;11.40;99.90;;;;;;5055201;28;20217;-59
2021/05/31 04:34:14;;;;;;;1999.90;999.90;;;11.40;99.90;;;;;;5055428;28;20165;-56
2021/05/31 04:36:42;;;;;;;1999.90;999.90;;;11.40;99.90;;;;;;5055531;28;20196;-57
2021/05/31 04:39:10;;;;;;;1999.90;999.90;;;11.20;99.90;;;;;;5055709;28;20239;-57
2021/05/31 04:41:38;;;;;;;1999.90;999.90;;;11.10;99.90;;;;;;5055874;28;20493;-58
2021/05/31 04:44:06;;;;;;;1999.90;999.90;;;11.00;99.90;;;;;;5055248;28;20284;-53
2021/05/31 04:46:34;;;;;;;1999.90;999.90;;;11.00;99.90;;;;;;5055391;28;20558;-59
2021/05/31 04:49:01;;;;;;;1999.90;999.90;;;11.00;99.90;;;;;;5055192;28;20174;-59
2021/05/31 04:51:28;;;;;;;1999.90;999.90;;;11.00;99.90;;;;;;5055150;28;20204;-55
2021/05/31 04:53:57;;;;;;;1999.90;999.90;;;11.00;99.90;;;;;;5054927;28;20264;-58
2021/05/31 04:56:25;;;;;;;1999.90;999.90;;;10.90;99.90;;;;;;5054979;28;20173;-59
2021/05/31 04:58:52;;;;;;;1999.90;999.90;;;10.90;99.90;;;;;;5055034;28;20165;-48
2021/05/31 05:01:19;;;;;;;1999.90;999.90;;;11.00;99.90;;;;;;5054994;28;20524;-51
2021/05/31 05:03:46;;;;;;;1999.90;999.90;;;11.00;99.90;;;;;;5054848;28;20696;-57
2021/05/31 05:06:12;;;;;;;1999.90;999.90;;;11.00;99.90;;;;;;5053576;28;20173;-47
2021/05/31 05:08:39;;;;;;;1999.90;999.90;;;11.10;99.90;;;;;;5054924;28;20203;-54
2021/05/31 05:11:06;;;;;;;1999.90;999.90;;;11.00;99.90;;;;;;5054778;28;20178;-47
2021/05/31 05:13:33;;;;;;;1999.90;999.90;;;11.00;99.90;;;;;;5054727;28;20239;-51
2021/05/31 05:16:00;;;;;;;1999.90;999.90;;;11.00;99.90;;;;;;5054692;28;20586;-52
2021/05/31 05:18:27;;;;;;;1999.90;999.90;;;11.10;99.90;;;;;;5054610;28;20177;-48
2021/05/31 05:20:54;;;;;;;1999.90;999.90;;;11.10;99.90;;;;;;5054675;28;20184;-57
2021/05/31 05:23:21;;;;;;;1999.90;999.90;;;11.10;99.90;;;;;;5054519;28;20228;-58
2021/05/31 05:25:48;;;;;;;1999.90;999.90;;;11.10;99.90;;;;;;5054524;28;20273;-50
2021/05/31 05:28:14;;;;;;;1999.90;999.90;;;11.10;99.90;;;;;;5054418;28;20180;-48
2021/05/31 05:30:41;;;;;;;1999.90;999.90;;;11.10;99.90;;;;;;5054452;28;20703;-49
2021/05/31 05:33:08;;;;;;;1999.90;999.90;;;11.10;99.90;;;;;;5054301;28;20177;-56
2021/05/31 05:35:38;;;;;;;1999.90;999.90;;;11.20;99.90;;;;;;5054004;28;20177;-52
2021/05/31 05:43:25;;;;;;;1999.90;999.90;;;11.20;99.90;;;;;;5054014;28;20675;-48
2021/05/31 05:48:37;;;;;;;1999.90;999.90;;;11.20;99.90;;;;;;5053867;28;20215;-58
2021/05/31 05:51:05;;;;;;;1999.90;999.90;;;11.20;99.90;;;;;;5053681;28;20169;-52
2021/05/31 05:53:33;;;;;;;1999.90;999.90;;;11.30;99.90;;;;;;5053829;28;20208;-48
2021/05/31 05:56:01;;;;;;;1999.90;999.90;;;11.30;99.90;;;;;;5053883;28;20177;-58
2021/05/31 05:58:29;;;;;;;1999.90;999.90;;;11.40;99.90;;;;;;5053716;28;20165;-49
2021/05/31 06:01:01;;;;;;;1999.90;999.90;;;11.40;99.90;;;;;;5053675;28;20188;-43
2021/05/31 06:03:28;;;;;;;1999.90;999.90;;;11.40;99.90;;;;;;5053593;28;20227;-48
2021/05/31 06:05:56;;;;;;;1999.90;999.90;;;11.50;99.90;;;;;;5053602;28;20162;-47
2021/05/31 06:08:24;;;;;;;1999.90;999.90;;;11.50;99.90;;;;;;5053529;28;20174;-45
2021/05/31 06:10:51;;;;;;;1999.90;999.90;;;11.60;99.90;;;;;;5053559;28;20227;-43
2021/05/31 06:13:23;;;;;;;1999.90;999.90;;;11.60;99.90;;;;;;5050494;28;20158;-49
2021/05/31 06:15:52;;;;;;;1999.90;999.90;;;11.60;99.90;;;;;;5053065;28;20169;-46
2021/05/31 06:18:19;;;;;;;1999.90;999.90;;;11.60;99.90;;;;;;5052881;28;20161;-52
2021/05/31 06:20:46;;;;;;;1999.90;999.90;;;11.50;99.90;;;;;;5053384;28;20185;-48
2021/05/31 06:23:13;;;;;;;1999.90;999.90;;;11.50;99.90;;;;;;5053051;28;20193;-50
2021/05/31 06:25:40;;;;;;;1999.90;999.90;;;11.40;99.90;;;;;;5051856;28;20224;-49
2021/05/31 06:28:08;;;;;;;1999.90;999.90;;;11.60;99.90;;;;;;5052876;28;20188;-51
2021/05/31 06:30:36;;;;;;;1999.90;999.90;;;11.70;99.90;;;;;;5052617;28;20686;-48
2021/05/31 06:33:03;;;;;;;1999.90;999.90;;;11.70;99.90;;;;;;5052750;28;20191;-54
2021/05/31 06:35:32;;;;;;;1999.90;999.90;;;11.70;99.90;;;;;;5052396;28;20656;-51
2021/05/31 06:37:59;;;;;;;1999.90;999.90;;;11.80;99.90;;;;;;5052626;28;20181;-59
2021/05/31 06:40:26;;;;;;;1999.90;999.90;;;12.00;99.90;;;;;;5052676;28;20515;-54
2021/05/31 06:42:54;;;;;;;1999.90;999.90;;;12.00;99.90;;;;;;5052390;28;20207;-50
2021/05/31 06:45:26;;;;;;;1999.90;999.90;;;12.00;99.90;;;;;;5052606;28;20177;-47
2021/05/31 06:48:01;;;;;;;1999.90;999.90;;;12.00;99.90;;;;;;5052444;28;20573;-54
2021/05/31 06:50:31;;;;;;;1999.90;999.90;;;12.10;99.90;;;;;;5052718;28;20256;-55
2021/05/31 06:52:58;;;;;;;1999.90;999.90;;;12.50;99.90;;;;;;5052533;28;20210;-50
2021/05/31 06:55:27;;;;;;;1999.90;999.90;;;12.50;99.90;;;;;;5052647;28;20257;-47
2021/05/31 06:57:54;;;;;;;1999.90;999.90;;;12.40;99.90;;;;;;5052271;28;20185;-47
2021/05/31 07:00:24;;;;;;;1999.90;999.90;;;12.40;99.90;;;;;;5052195;28;20510;-55
2021/05/31 07:02:51;;;;;;;1999.90;999.90;;;12.40;99.90;;;;;;5052303;28;20246;-56
2021/05/31 07:05:19;;;;;;;1999.90;999.90;;;12.50;99.90;;;;;;5052468;28;20181;-56
2021/05/31 07:07:46;;;;;;;1999.90;999.90;;;12.50;99.90;;;;;;5052202;28;20173;-54
2021/05/31 07:10:15;;;;;;;1999.90;999.90;;;12.70;99.90;;;;;;5052295;28;20655;-60
2021/05/31 07:12:42;;;;;;;1999.90;999.90;;;13.20;99.90;;;;;;5052118;28;20176;-59
2021/05/31 07:15:12;;;;;;;1999.90;999.90;;;13.10;99.90;;;;;;5051860;28;20176;-57
2021/05/31 07:17:40;;;;;;;1999.90;999.90;;;13.00;99.90;;;;;;5051740;28;20162;-49
2021/05/31 07:20:13;;;;;;;1999.90;999.90;;;12.80;99.90;;;;;;5052275;28;20169;-58
2021/05/31 07:22:40;;;;;;;1999.90;999.90;;;12.70;99.90;;;;;;5051870;28;20158;-58
2021/05/31 07:25:08;;;;;;;1999.90;999.90;;;12.60;99.90;;;;;;5052194;28;20169;-54
2021/05/31 07:27:35;;;;;;;1999.90;999.90;;;12.80;99.90;;;;;;5051994;28;20240;-59
2021/05/31 07:30:05;;;;;;;1999.90;999.90;;;13.30;99.90;;;;;;5051717;28;20216;-58
2021/05/31 07:32:32;;;;;;;1999.90;999.90;;;13.30;99.90;;;;;;5051961;28;20295;-58
2021/05/31 07:34:59;;;;;;;1999.90;999.90;;;13.30;99.90;;;;;;5051987;28;20165;-54
2021/05/31 07:37:26;;;;;;;1999.90;999.90;;;13.40;99.90;;;;;;5052048;28;20235;-55
2021/05/31 07:39:52;;;;;;;1999.90;999.90;;;13.50;99.90;;;;;;5050629;28;20173;-49
2021/05/31 07:42:20;;;;;;;1999.90;999.90;;;13.60;99.90;;;;;;5052160;28;20252;-48
2021/05/31 07:44:46;;;;;;;1999.90;999.90;;;13.70;99.90;;;;;;5051986;28;20619;-50
2021/05/31 07:47:13;;;;;;;1999.90;999.90;;;13.40;99.90;;;;;;5051808;28;20169;-49
2021/05/31 07:49:41;;;;;;;1999.90;999.90;;;13.50;99.90;;;;;;5051803;28;20624;-52
2021/05/31 07:52:18;;;;;;;1999.90;999.90;;;14.10;99.90;;;;;;5052072;28;20248;-51
2021/05/31 07:54:45;;;;;;;1999.90;999.90;;;14.60;99.90;;;;;;5052019;28;20204;-54
2021/05/31 07:57:12;;;;;;;1999.90;999.90;;;14.50;99.90;;;;;;5051851;28;20173;-49
2021/05/31 07:59:40;;;;;;;1999.90;999.90;;;15.40;99.90;;;;;;5051902;28;20222;-47
2021/05/31 08:02:09;;;;;;;1999.90;999.90;;;16.00;99.90;;;;;;5055417;28;20195;-45
2021/05/31 08:04:36;;;;;;;1999.90;999.90;;;16.10;99.90;;;;;;5055243;28;20304;-55
2021/05/31 08:07:03;;;;;;;1999.90;999.90;;;16.10;99.90;;;;;;5055439;28;20532;-54
2021/05/31 08:09:30;;;;;;;1999.90;999.90;;;15.60;99.90;;;;;;5055224;28;20602;-47
2021/05/31 08:11:58;;;;;;;1999.90;999.90;;;15.30;99.90;;;;;;5055363;28;20173;-56
2021/05/31 08:14:26;;;;;;;1999.90;999.90;;;14.90;99.90;;;;;;5055430;28;20162;-53
2021/05/31 08:16:53;;;;;;;1999.90;999.90;;;14.50;99.90;;;;;;5055456;28;20171;-54
2021/05/31 08:19:20;;;;;;;1999.90;999.90;;;14.00;99.90;;;;;;5055091;28;20176;-50
2021/05/31 08:21:48;;;;;;;1999.90;999.90;;;13.70;99.90;;;;;;5055213;28;20169;-59
2021/05/31 08:24:18;;;;;;;1999.90;999.90;;;13.70;99.90;;;;;;5055262;28;20228;-59
2021/05/31 08:26:45;;;;;;;1999.90;999.90;;;13.70;99.90;;;;;;5054881;28;20338;-64
2021/05/31 08:29:12;;;;;;;1999.90;999.90;;;13.80;99.90;;;;;;5055060;28;20188;-65
2021/05/31 08:31:39;;;;;;;1999.90;999.90;;;13.70;99.90;;;;;;5054965;28;20567;-60
2021/05/31 08:34:05;;;;;;;1999.90;999.90;;;13.70;99.90;;;;;;5054967;28;20176;-59
2021/05/31 08:36:32;;;;;;;1999.90;999.90;;;13.70;99.90;;;;;;5053587;28;20256;-60
2021/05/31 08:38:59;;;;;;;1999.90;999.90;;;13.80;99.90;;;;;;5054842;28;20169;-60
2021/05/31 08:41:29;;;;;;;1999.90;999.90;;;13.90;99.90;;;;;;5054870;28;20236;-60
2021/05/31 08:43:57;;;;;;;1999.90;999.90;;;14.00;99.90;;;;;;5054472;28;20223;-59
2021/05/31 08:46:23;;;;;;;1999.90;999.90;;;14.00;99.90;;;;;;5054797;28;20722;-60
2021/05/31 08:48:51;;;;;;;1999.90;999.90;;;14.00;99.90;;;;;;5054765;28;20177;-62
2021/05/31 08:51:19;;;;;;;1999.90;999.90;;;14.10;99.90;;;;;;5054951;28;20223;-62
2021/05/31 08:53:46;;;;;;;1999.90;999.90;;;14.10;99.90;;;;;;5054713;28;20176;-61
2021/05/31 08:56:13;;;;;;;1999.90;999.90;;;14.10;99.90;;;;;;5054345;28;20169;-60
2021/05/31 08:58:40;;;;;;;1999.90;999.90;;;14.20;99.90;;;;;;5054186;28;20529;-59
2021/05/31 09:01:07;;;;;;;1999.90;999.90;;;14.00;99.90;;;;;;5054220;28;20177;-59
2021/05/31 09:03:34;;;;;;;1999.90;999.90;;;14.00;99.90;;;;;;5054408;28;20197;-60
2021/05/31 09:06:03;;;;;;;1999.90;999.90;;;14.10;99.90;;;;;;5054565;28;20161;-61
2021/05/31 09:08:31;;;;;;;1999.90;999.90;;;14.30;99.90;;;;;;5054676;28;20176;-61
2021/05/31 09:11:02;;;;;;;1999.90;999.90;;;14.50;99.90;;;;;;5053690;28;20204;-60
2021/05/31 09:13:40;;;;;;;1999.90;999.90;;;14.50;99.90;;;;;;5053501;28;20169;-58
2021/05/31 09:16:18;;;;;;;1999.90;999.90;;;15.20;99.90;;;;;;5053985;28;20505;-61
2021/05/31 09:18:52;;;;;;;1999.90;999.90;;;15.70;99.90;;;;;;5054087;28;20524;-63
2021/05/31 09:21:29;;;;;;;1999.90;999.90;;;15.80;99.90;;;;;;5054281;28;20153;-58
2021/05/31 09:24:01;;;;;;;1999.90;999.90;;;16.00;99.90;;;;;;5052440;28;20215;-61
2021/05/31 09:26:29;;;;;;;1999.90;999.90;;;15.80;99.90;;;;;;5054402;28;20571;-60
2021/05/31 09:29:02;;;;;;;1999.90;999.90;;;15.70;99.90;;;;;;5053844;28;20248;-58
2021/05/31 09:31:31;;;;;;;1999.90;999.90;;;15.60;99.90;;;;;;5053746;28;20209;-60
2021/05/31 09:34:00;;;;;;;1999.90;999.90;;;15.60;99.90;;;;;;5053882;28;20169;-59
2021/05/31 09:36:27;;;;;;;1999.90;999.90;;;15.80;99.90;;;;;;5053768;28;20773;-59
2021/05/31 09:38:55;;;;;;;1999.90;999.90;;;15.80;99.90;;;;;;5053622;28;20188;-62
2021/05/31 09:41:30;;;;;;;1999.90;999.90;;;15.60;99.90;;;;;;5053613;28;20161;-60
2021/05/31 09:44:00;;;;;;;1999.90;999.90;;;15.90;99.90;;;;;;5053422;28;20197;-59
2021/05/31 09:46:47;;;;;;;1999.90;999.90;;;15.70;99.90;;;;;;5053417;28;20645;-58
2021/05/31 09:49:20;;;;;;;1999.90;999.90;;;15.60;99.90;;;;;;5053554;28;20165;-58
2021/05/31 09:52:02;;;;;;;1999.90;999.90;;;15.40;99.90;;;;;;5053678;28;20241;-58
2021/05/31 09:54:34;;;;;;;1999.90;999.90;;;15.20;99.90;;;;;;5052543;28;20177;-58
2021/05/31 09:57:18;;;;;;;1999.90;999.90;;;15.00;99.90;;;;;;5053373;28;20172;-65
2021/05/31 09:59:52;;;;;;;1999.90;999.90;;;15.50;99.90;;;;;;5053516;28;20218;-60
2021/05/31 10:02:24;;;;;;;1999.90;999.90;;;15.30;99.90;;;;;;5053319;28;20208;-57
2021/05/31 10:05:03;;;;;;;1999.90;999.90;;;15.10;99.90;;;;;;5052973;28;20671;-55
2021/05/31 10:10:07;;;;;;;1999.90;999.90;;;14.60;99.90;;;;;;5053260;28;20617;-51
2021/05/31 10:12:37;;;;;;;1999.90;999.90;;;14.50;99.90;;;;;;5052972;28;20519;-51
2021/05/31 10:15:09;;;;;;;1999.90;999.90;;;14.40;99.90;;;;;;5053589;28;20176;-53
2021/05/31 10:17:36;;;;;;;1999.90;999.90;;;14.20;99.90;;;;;;5052940;28;20199;-55
2021/05/31 10:20:05;;;;;;;1999.90;999.90;;;14.30;99.90;;;;;;5053031;28;20161;-60
2021/05/31 10:22:33;;;;;;;1999.90;999.90;;;14.40;99.90;;;;;;5052623;28;20253;-55
2021/05/31 10:25:06;;;;;;;1999.90;999.90;;;14.30;99.90;;;;;;5052611;28;20192;-60
2021/05/31 10:27:35;;;;;;;1999.90;999.90;;;14.10;99.90;;;;;;5050138;28;20173;-56
2021/05/31 10:30:04;;;;;;;1999.90;999.90;;;14.10;99.90;;;;;;5044464;28;20273;-59
2021/05/31 10:32:31;;;;;;;1999.90;999.90;;;14.30;99.90;;;;;;5043760;28;20166;-52
2021/05/31 10:34:58;;;;;;;1999.90;999.90;;;14.60;99.90;;;;;;5038155;28;20261;-59
2021/05/31 10:37:27;;;;;;;1999.90;999.90;;;15.00;99.90;;;;;;5039216;28;20172;-50
2021/05/31 10:40:13;;;;;;;1999.90;999.90;;;15.50;99.90;;;;;;5052582;28;20255;-48
2021/05/31 10:42:41;;;;;;;1999.90;999.90;;;15.60;99.90;;;;;;5052458;28;20164;-53
2021/05/31 10:45:27;;;;;;;1999.90;999.90;;;15.40;99.90;;;;;;5038798;28;20656;-56
2021/05/31 10:48:12;;;;;;;1999.90;999.90;;;15.30;99.90;;;;;;5042717;28;20166;-60
2021/05/31 10:50:50;;;;;;;1999.90;999.90;;;15.40;99.90;;;;;;5047726;28;20208;-43
2021/05/31 10:55:54;;;;;;;1999.90;999.90;;;15.90;99.90;;;;;;5052574;28;20180;-60
2021/05/31 10:58:25;;;;;;;1999.90;999.90;;;16.00;99.90;;;;;;5052443;28;20204;-60
2021/05/31 11:01:01;;;;;;;1999.90;999.90;;;16.00;99.90;;;;;;5052283;28;20161;-60
2021/05/31 11:03:29;;;;;;;1999.90;999.90;;;15.90;99.90;;;;;;5052414;28;20196;-60
2021/05/31 11:05:57;;;;;;;1999.90;999.90;;;15.80;99.90;;;;;;5052246;28;20569;-56
2021/05/31 11:08:29;;;;;;;1999.90;999.90;;;16.00;99.90;;;;;;5049036;28;20165;-59
2021/05/31 11:11:01;;;;;;;1999.90;999.90;;;16.20;99.90;;;;;;5035080;28;20166;-59
2021/05/31 11:13:28;;;;;;;1999.90;999.90;;;16.40;99.90;;;;;;5030937;28;20539;-60
2021/05/31 11:16:09;;;;;;;1999.90;999.90;;;16.50;99.90;;;;;;5032363;28;20695;-59
2021/05/31 11:18:41;;;;;;;1999.90;999.90;;;16.50;99.90;;;;;;5032516;28;20162;-60
2021/05/31 11:21:09;;;;;;;1999.90;999.90;;;16.40;99.90;;;;;;5042942;28;20169;-60
2021/05/31 11:23:37;;;;;;;1999.90;999.90;;;16.50;99.90;;;;;;5041400;28;20197;-56
2021/05/31 11:26:04;;;;;;;1999.90;999.90;;;16.60;99.90;;;;;;5052153;28;20570;-60
2021/05/31 11:28:31;;;;;;;1999.90;999.90;;;16.50;99.90;;;;;;5052129;28;20655;-61
2021/05/31 11:30:58;;;;;;;1999.90;999.90;;;16.70;99.90;;;;;;5051963;28;20213;-57
2021/05/31 11:33:24;;;;;;;1999.90;999.90;;;16.70;99.90;;;;;;5052100;28;20169;-60
2021/05/31 11:35:52;;;;;;;1999.90;999.90;;;16.90;99.90;;;;;;5053954;28;20184;-59
2021/05/31 11:38:20;;;;;;;1999.90;999.90;;;16.60;99.90;;;;;;5056096;28;20196;-57
2021/05/31 11:40:47;;;;;;;1999.90;999.90;;;16.40;99.90;;;;;;5056014;28;20238;-58
2021/05/31 11:43:14;;;;;;;1999.90;999.90;;;16.30;99.90;;;;;;5056009;28;20283;-58
2021/05/31 11:45:45;;;;;;;1999.90;999.90;;;16.00;99.90;;;;;;5055958;28;20248;-56
2021/05/31 11:48:16;;;;;;;1999.90;999.90;;;16.00;99.90;;;;;;5056276;28;20169;-56
2021/05/31 11:50:46;;;;;;;1999.90;999.90;;;15.80;99.90;;;;;;5055802;28;20193;-56
2021/05/31 11:53:16;;;;;;;1999.90;999.90;;;15.70;99.90;;;;;;5056161;28;20162;-56
2021/05/31 11:55:44;;;;;;;1999.90;999.90;;;16.00;99.90;;;;;;5055886;28;20216;-55
2021/05/31 11:58:11;;;;;;;1999.90;999.90;;;16.00;99.90;;;;;;5056093;28;20161;-58
2021/05/31 12:00:42;;;;;;;1999.90;999.90;;;16.20;99.90;;;;;;5055931;28;20615;-58
2021/05/31 12:03:23;;;;;;;1999.90;999.90;;;15.90;99.90;;;;;;5055697;28;20293;-56
2021/05/31 12:05:50;;;;;;;1999.90;999.90;;;15.80;99.90;;;;;;5055804;28;20161;-57
2021/05/31 12:08:17;;;;;;;1999.90;999.90;;;15.80;99.90;;;;;;5055701;28;20173;-57
2021/05/31 12:10:46;;;;;;;1999.90;999.90;;;15.70;99.90;;;;;;5055836;28;20173;-55
2021/05/31 12:13:14;;;;;;;1999.90;999.90;;;15.80;99.90;;;;;;5055652;28;20535;-54
2021/05/31 12:15:41;;;;;;;1999.90;999.90;;;15.70;99.90;;;;;;5055776;28;20177;-57
2021/05/31 12:18:23;;;;;;;1999.90;999.90;;;15.60;99.90;;;;;;5055343;28;20173;-61
2021/05/31 12:20:57;;;;;;;1999.90;999.90;;;16.40;99.90;;;;;;5055500;28;20509;-57
2021/05/31 12:23:25;;;;;;;1999.90;999.90;;;16.60;99.90;;;;;;5055393;28;20663;-56
2021/05/31 12:25:52;;;;;;;1999.90;999.90;;;16.40;99.90;;;;;;5055512;28;20172;-56